sensor_id;sensor_type;location;lat;lon;timestamp;pressure;altitude;pressure_sealevel;temperature;humidity
56514;BME280;62152;52.078;8.414;2024-02-14T00:01:52;100070.28;;;17.70;57.34
56514;BME280;62152;52.078;8.414;2024-02-14T00:05:53;100061.63;;;17.68;57.20
56514;BME280;62152;52.078;8.414;2024-02-14T00:09:53;100058.91;;;17.68;57.28
56514;BME280;62152;52.078;8.414;2024-02-14T00:13:57;100054.19;;;17.69;57.27
56514;BME280;62152;52.078;8.414;2024-02-14T00:17:57;100050.25;;;17.66;57.29
56514;BME280;62152;52.078;8.414;2024-02-14T00:21:58;100033.78;;;17.66;57.33
56514;BME280;62152;52.078;8.414;2024-02-14T00:25:59;100040.84;;;17.67;57.25
56514;BME280;62152;52.078;8.414;2024-02-14T00:30:03;100037.69;;;17.65;57.39
56514;BME280;62152;52.078;8.414;2024-02-14T00:34:04;100035.38;;;17.67;57.10
56514;BME280;62152;52.078;8.414;2024-02-14T00:38:05;100036.13;;;17.64;57.24
56514;BME280;62152;52.078;8.414;2024-02-14T00:42:06;100024.78;;;17.66;57.41
56514;BME280;62152;52.078;8.414;2024-02-14T00:46:14;100018.53;;;17.69;57.33
56514;BME280;62152;52.078;8.414;2024-02-14T00:50:15;100008.69;;;17.64;57.11
56514;BME280;62152;52.078;8.414;2024-02-14T00:54:16;100013.00;;;17.65;57.08
56514;BME280;62152;52.078;8.414;2024-02-14T00:58:17;100002.03;;;17.65;57.25
56514;BME280;62152;52.078;8.414;2024-02-14T01:02:20;100013.00;;;17.65;57.42
56514;BME280;62152;52.078;8.414;2024-02-14T01:06:21;100000.09;;;17.66;57.33
56514;BME280;62152;52.078;8.414;2024-02-14T01:10:22;99996.13;;;17.63;57.43
56514;BME280;62152;52.078;8.414;2024-02-14T01:14:23;99995.41;;;17.66;57.18
56514;BME280;62152;52.078;8.414;2024-02-14T01:18:26;99992.25;;;17.64;57.26
56514;BME280;62152;52.078;8.414;2024-02-14T01:22:27;99988.72;;;17.64;57.40
56514;BME280;62152;52.078;8.414;2024-02-14T01:26:27;99984.34;;;17.63;57.24
56514;BME280;62152;52.078;8.414;2024-02-14T01:30:28;99992.25;;;17.64;57.21
56514;BME280;62152;52.078;8.414;2024-02-14T01:34:32;99981.31;;;17.68;57.32
56514;BME280;62152;52.078;8.414;2024-02-14T01:38:33;99978.06;;;17.62;57.38
56514;BME280;62152;52.078;8.414;2024-02-14T01:42:33;99974.53;;;17.62;57.19
56514;BME280;62152;52.078;8.414;2024-02-14T01:46:34;99975.78;;;17.64;57.16
56514;BME280;62152;52.078;8.414;2024-02-14T01:50:38;99971.44;;;17.63;57.32
56514;BME280;62152;52.078;8.414;2024-02-14T01:54:39;99962.06;;;17.64;57.23
56514;BME280;62152;52.078;8.414;2024-02-14T01:58:41;99956.94;;;17.63;57.24
56514;BME280;62152;52.078;8.414;2024-02-14T02:02:41;99947.56;;;17.64;57.40
56514;BME280;62152;52.078;8.414;2024-02-14T02:06:50;99952.22;;;17.63;57.27
56514;BME280;62152;52.078;8.414;2024-02-14T02:10:51;99953.84;;;17.64;57.28
56514;BME280;62152;52.078;8.414;2024-02-14T02:14:52;99940.13;;;17.64;57.17
56514;BME280;62152;52.078;8.414;2024-02-14T02:18:52;99933.03;;;17.63;57.23
56514;BME280;62152;52.078;8.414;2024-02-14T02:22:56;99939.69;;;17.62;57.18
56514;BME280;62152;52.078;8.414;2024-02-14T02:26:57;99938.53;;;17.63;57.18
56514;BME280;62152;52.078;8.414;2024-02-14T02:30:58;99930.28;;;17.63;57.16
56514;BME280;62152;52.078;8.414;2024-02-14T02:34:58;99929.50;;;17.63;57.34
56514;BME280;62152;52.078;8.414;2024-02-14T02:39:02;99931.91;;;17.64;57.17
56514;BME280;62152;52.078;8.414;2024-02-14T02:43:03;99918.13;;;17.61;57.31
56514;BME280;62152;52.078;8.414;2024-02-14T02:47:03;99923.22;;;17.62;57.37
56514;BME280;62152;52.078;8.414;2024-02-14T02:51:04;99923.22;;;17.62;57.35
56514;BME280;62152;52.078;8.414;2024-02-14T02:55:08;99916.16;;;17.61;57.16
56514;BME280;62152;52.078;8.414;2024-02-14T02:59:09;99920.13;;;17.64;57.32
56514;BME280;62152;52.078;8.414;2024-02-14T03:03:10;99907.94;;;17.61;57.39
56514;BME280;62152;52.078;8.414;2024-02-14T03:07:11;99901.66;;;17.61;57.43
56514;BME280;62152;52.078;8.414;2024-02-14T03:11:15;99907.56;;;17.63;57.11
56514;BME280;62152;52.078;8.414;2024-02-14T03:15:17;99907.94;;;17.61;57.18
56514;BME280;62152;52.078;8.414;2024-02-14T03:19:18;99909.09;;;17.60;57.16
56514;BME280;62152;52.078;8.414;2024-02-14T03:23:19;99911.84;;;17.60;57.37
56514;BME280;62152;52.078;8.414;2024-02-14T03:27:23;99907.91;;;17.58;57.25
56514;BME280;62152;52.078;8.414;2024-02-14T03:31:23;99911.84;;;17.60;57.32
56514;BME280;62152;52.078;8.414;2024-02-14T03:35:24;99905.19;;;17.61;57.43
56514;BME280;62152;52.078;8.414;2024-02-14T03:39:25;99909.09;;;17.60;57.22
56514;BME280;62152;52.078;8.414;2024-02-14T03:43:28;99916.22;;;17.65;57.03
56514;BME280;62152;52.078;8.414;2024-02-14T03:47:29;99905.19;;;17.61;57.32
56514;BME280;62152;52.078;8.414;2024-02-14T03:51:30;99909.09;;;17.60;57.29
56514;BME280;62152;52.078;8.414;2024-02-14T03:55:31;99897.34;;;17.60;57.33
56514;BME280;62152;52.078;8.414;2024-02-14T03:59:35;99890.69;;;17.61;57.32
56514;BME280;62152;52.078;8.414;2024-02-14T04:03:36;99904.78;;;17.59;57.14
56514;BME280;62152;52.078;8.414;2024-02-14T04:07:37;99896.56;;;17.59;57.32
56514;BME280;62152;52.078;8.414;2024-02-14T04:11:37;99907.56;;;17.63;57.07
56514;BME280;62152;52.078;8.414;2024-02-14T04:15:41;99893.44;;;17.61;57.06
56514;BME280;62152;52.078;8.414;2024-02-14T04:19:42;99905.56;;;17.60;57.38
56514;BME280;62152;52.078;8.414;2024-02-14T04:23:42;99898.53;;;17.62;57.10
56514;BME280;62152;52.078;8.414;2024-02-14T04:27:43;99896.66;;;17.66;57.07
56514;BME280;62152;52.078;8.414;2024-02-14T04:31:46;99892.72;;;17.64;57.18
56514;BME280;62152;52.078;8.414;2024-02-14T04:35:47;99895.31;;;17.80;58.91
56514;BME280;62152;52.078;8.414;2024-02-14T04:39:48;99899.31;;;17.86;58.99
56514;BME280;62152;52.078;8.414;2024-02-14T04:43:49;99896.97;;;17.88;58.97
56514;BME280;62152;52.078;8.414;2024-02-14T04:47:52;99891.44;;;17.84;59.07
56514;BME280;62152;52.078;8.414;2024-02-14T04:51:54;99889.06;;;17.83;59.20
56514;BME280;62152;52.078;8.414;2024-02-14T04:55:55;99889.06;;;17.83;58.79
56514;BME280;62152;52.078;8.414;2024-02-14T04:59:56;99888.84;;;17.42;58.59
56514;BME280;62152;52.078;8.414;2024-02-14T05:03:59;99901.53;;;16.20;59.20
56514;BME280;62152;52.078;8.414;2024-02-14T05:08:00;99904.69;;;17.29;57.67
56514;BME280;62152;52.078;8.414;2024-02-14T05:12:01;99894.03;;;17.47;56.69
56514;BME280;62152;52.078;8.414;2024-02-14T05:16:02;99895.69;;;17.55;56.45
56514;BME280;62152;52.078;8.414;2024-02-14T05:20:07;99896.16;;;17.57;56.56
56514;BME280;62152;52.078;8.414;2024-02-14T05:24:08;99905.09;;;17.54;56.57
56514;BME280;62152;52.078;8.414;2024-02-14T05:28:08;99895.13;;;17.69;56.26
56514;BME280;62152;52.078;8.414;2024-02-14T05:32:09;99902.97;;;17.70;56.46
56514;BME280;62152;52.078;8.414;2024-02-14T05:36:13;99899.69;;;17.58;57.06
56514;BME280;62152;52.078;8.414;2024-02-14T05:40:14;99901.19;;;17.55;57.17
56514;BME280;62152;52.078;8.414;2024-02-14T05:44:14;99902.75;;;17.56;57.11
56514;BME280;62152;52.078;8.414;2024-02-14T05:48:15;99902.75;;;17.56;57.08
56514;BME280;62152;52.078;8.414;2024-02-14T05:52:19;99909.41;;;17.55;57.09
56514;BME280;62152;52.078;8.414;2024-02-14T05:56:19;99909.41;;;17.55;56.99
56514;BME280;62152;52.078;8.414;2024-02-14T06:00:20;99909.00;;;17.53;57.17
56514;BME280;62152;52.078;8.414;2024-02-14T06:04:21;99907.03;;;17.54;57.17
56514;BME280;62152;52.078;8.414;2024-02-14T06:08:25;99915.69;;;17.56;57.16
56514;BME280;62152;52.078;8.414;2024-02-14T06:12:25;99918.81;;;17.54;57.18
56514;BME280;62152;52.078;8.414;2024-02-14T06:16:26;99919.19;;;17.53;57.22
56514;BME280;62152;52.078;8.414;2024-02-14T06:20:27;99923.88;;;17.52;57.10
56514;BME280;62152;52.078;8.414;2024-02-14T06:24:30;99920.38;;;17.55;57.21
56514;BME280;62152;52.078;8.414;2024-02-14T06:28:31;99939.16;;;17.53;57.25
56514;BME280;62152;52.078;8.414;2024-02-14T06:32:32;99934.84;;;17.52;57.28
56514;BME280;62152;52.078;8.414;2024-02-14T06:36:33;99942.22;;;17.48;57.27
56514;BME280;62152;52.078;8.414;2024-02-14T06:40:36;99946.97;;;17.51;57.31
56514;BME280;62152;52.078;8.414;2024-02-14T06:44:37;99952.47;;;17.51;57.32
56514;BME280;62152;52.078;8.414;2024-02-14T06:48:38;99954.75;;;17.49;57.37
56514;BME280;62152;52.078;8.414;2024-02-14T06:52:39;99959.09;;;17.50;57.12
56514;BME280;62152;52.078;8.414;2024-02-14T06:56:42;99970.78;;;17.47;57.18
56514;BME280;62152;52.078;8.414;2024-02-14T07:00:43;99970.50;;;17.52;57.06
56514;BME280;62152;52.078;8.414;2024-02-14T07:04:43;99970.06;;;17.50;57.24
56514;BME280;62152;52.078;8.414;2024-02-14T07:08:44;99969.25;;;17.49;57.36
56514;BME280;62152;52.078;8.414;2024-02-14T07:12:48;99983.34;;;17.48;57.38
56514;BME280;62152;52.078;8.414;2024-02-14T07:16:48;99981.75;;;17.47;57.30
56514;BME280;62152;52.078;8.414;2024-02-14T07:20:49;99988.44;;;17.49;57.07
56514;BME280;62152;52.078;8.414;2024-02-14T07:24:50;99973.53;;;17.47;57.31
56514;BME280;62152;52.078;8.414;2024-02-14T07:28:53;99991.56;;;17.48;57.11
56514;BME280;62152;52.078;8.414;2024-02-14T07:32:54;99992.72;;;17.47;57.36
56514;BME280;62152;52.078;8.414;2024-02-14T07:36:55;99991.56;;;17.48;57.14
56514;BME280;62152;52.078;8.414;2024-02-14T07:40:56;99998.22;;;17.47;57.18
56514;BME280;62152;52.078;8.414;2024-02-14T07:44:59;100002.53;;;17.48;57.17
56514;BME280;62152;52.078;8.414;2024-02-14T07:49:00;100010.75;;;17.48;57.13
56514;BME280;62152;52.078;8.414;2024-02-14T07:53:01;100015.44;;;17.47;57.06
56514;BME280;62152;52.078;8.414;2024-02-14T07:57:02;100019.72;;;17.45;57.29
56514;BME280;62152;52.078;8.414;2024-02-14T08:01:05;100022.88;;;17.47;57.25
56514;BME280;62152;52.078;8.414;2024-02-14T08:05:06;100021.72;;;17.48;57.26
56514;BME280;62152;52.078;8.414;2024-02-14T08:09:07;100028.38;;;17.47;57.33
56514;BME280;62152;52.078;8.414;2024-02-14T08:13:08;100026.38;;;17.44;57.26
56514;BME280;62152;52.078;8.414;2024-02-14T08:17:11;100028.00;;;17.48;57.07
56514;BME280;62152;52.078;8.414;2024-02-14T08:21:12;100030.75;;;17.48;56.96
56514;BME280;62152;52.078;8.414;2024-02-14T08:25:13;100025.63;;;17.47;57.08
56514;BME280;62152;52.078;8.414;2024-02-14T08:29:14;100031.47;;;17.45;57.30
56514;BME280;62152;52.078;8.414;2024-02-14T08:33:17;100026.78;;;17.46;57.08
56514;BME280;62152;52.078;8.414;2024-02-14T08:37:18;100031.91;;;17.47;57.23
56514;BME280;62152;52.078;8.414;2024-02-14T08:41:18;100037.47;;;17.51;57.04
56514;BME280;62152;52.078;8.414;2024-02-14T08:45:20;100029.56;;;17.49;57.21
56514;BME280;62152;52.078;8.414;2024-02-14T08:49:23;100031.19;;;17.50;57.12
56514;BME280;62152;52.078;8.414;2024-02-14T08:53:24;100046.47;;;17.52;56.87
56514;BME280;62152;52.078;8.414;2024-02-14T08:57:25;100038.19;;;17.48;57.24
56514;BME280;62152;52.078;8.414;2024-02-14T09:01:26;100049.94;;;17.48;57.18
56514;BME280;62152;52.078;8.414;2024-02-14T09:05:29;100046.47;;;17.52;57.13
56514;BME280;62152;52.078;8.414;2024-02-14T09:09:30;100056.22;;;17.49;56.90
56514;BME280;62152;52.078;8.414;2024-02-14T09:13:31;100043.28;;;17.49;56.98
56514;BME280;62152;52.078;8.414;2024-02-14T09:17:31;100041.78;;;17.52;57.04
56514;BME280;62152;52.078;8.414;2024-02-14T09:21:35;100057.44;;;17.52;57.04
56514;BME280;62152;52.078;8.414;2024-02-14T09:25:35;100042.56;;;17.53;56.94
56514;BME280;62152;52.078;8.414;2024-02-14T09:29:36;100057.06;;;17.53;57.01
56514;BME280;62152;52.078;8.414;2024-02-14T09:33:37;100044.53;;;17.52;57.08
56514;BME280;62152;52.078;8.414;2024-02-14T09:37:41;100053.91;;;17.51;57.09
56514;BME280;62152;52.078;8.414;2024-02-14T09:41:42;100054.34;;;17.53;56.82
56514;BME280;62152;52.078;8.414;2024-02-14T09:45:45;100052.00;;;17.55;56.83
56514;BME280;62152;52.078;8.414;2024-02-14T09:49:46;100056.28;;;17.53;56.81
56514;BME280;62152;52.078;8.414;2024-02-14T09:53:51;100064.50;;;17.53;56.90
56514;BME280;62152;52.078;8.414;2024-02-14T09:57:55;100060.59;;;17.54;56.94
56514;BME280;62152;52.078;8.414;2024-02-14T10:01:57;100070.78;;;17.53;56.75
56514;BME280;62152;52.078;8.414;2024-02-14T10:10:50;100080.59;;;17.54;56.98
56514;BME280;62152;52.078;8.414;2024-02-14T10:14:50;100083.75;;;17.56;56.72
56514;BME280;62152;52.078;8.414;2024-02-14T10:18:51;100086.88;;;17.55;56.72
56514;BME280;62152;52.078;8.414;2024-02-14T10:22:59;100088.81;;;17.54;56.97
56514;BME280;62152;52.078;8.414;2024-02-14T10:27:07;100090.78;;;17.54;56.88
56514;BME280;62152;52.078;8.414;2024-02-14T10:31:07;100083.75;;;17.56;56.72
56514;BME280;62152;52.078;8.414;2024-02-14T10:35:10;100094.38;;;17.58;56.73
56514;BME280;62152;52.078;8.414;2024-02-14T10:39:13;100094.72;;;17.56;56.69
56514;BME280;62152;52.078;8.414;2024-02-14T10:43:18;100093.22;;;17.59;56.60
56514;BME280;62152;52.078;8.414;2024-02-14T10:47:20;100103.41;;;17.58;56.78
56514;BME280;62152;52.078;8.414;2024-02-14T10:51:31;100096.75;;;17.59;56.59
56514;BME280;62152;52.078;8.414;2024-02-14T10:55:33;100097.91;;;17.58;56.81
56514;BME280;62152;52.078;8.414;2024-02-14T10:59:41;100102.25;;;17.59;56.83
56514;BME280;62152;52.078;8.414;2024-02-14T11:03:44;100098.75;;;17.62;56.48
56514;BME280;62152;52.078;8.414;2024-02-14T11:07:46;100096.34;;;17.57;56.83
56514;BME280;62152;52.078;8.414;2024-02-14T11:11:47;100099.50;;;17.59;56.53
56514;BME280;62152;52.078;8.414;2024-02-14T11:15:51;100094.38;;;17.58;56.79
56514;BME280;62152;52.078;8.414;2024-02-14T11:19:52;100099.50;;;17.59;56.68
56514;BME280;62152;52.078;8.414;2024-02-14T11:23:53;100091.63;;;17.58;56.55
56514;BME280;62152;52.078;8.414;2024-02-14T11:27:54;100099.50;;;17.59;56.66
56514;BME280;62152;52.078;8.414;2024-02-14T11:32:01;100105.81;;;17.63;56.65
56514;BME280;62152;52.078;8.414;2024-02-14T11:36:08;100113.63;;;17.61;56.64
56514;BME280;62152;52.078;8.414;2024-02-14T11:40:10;100113.63;;;17.61;56.64
56514;BME280;62152;52.078;8.414;2024-02-14T11:44:10;100123.03;;;17.60;56.41
56514;BME280;62152;52.078;8.414;2024-02-14T11:48:15;100122.59;;;17.58;56.77
56514;BME280;62152;52.078;8.414;2024-02-14T11:52:16;100125.34;;;17.58;56.63
56514;BME280;62152;52.078;8.414;2024-02-14T11:56:17;100129.28;;;17.61;56.71
56514;BME280;62152;52.078;8.414;2024-02-14T12:00:19;100126.13;;;17.59;56.54
56514;BME280;62152;52.078;8.414;2024-02-14T12:04:22;100124.19;;;17.59;56.54
56514;BME280;62152;52.078;8.414;2024-02-14T12:08:23;100131.53;;;17.55;56.85
56514;BME280;62152;52.078;8.414;2024-02-14T12:12:24;100126.06;;;17.55;56.55
56514;BME280;62152;52.078;8.414;2024-02-14T12:16:25;100131.91;;;17.54;56.85
56514;BME280;62152;52.078;8.414;2024-02-14T12:20:28;100133.44;;;17.51;56.79
56514;BME280;62152;52.078;8.414;2024-02-14T12:24:29;100134.22;;;17.52;56.54
56514;BME280;62152;52.078;8.414;2024-02-14T12:28:31;100122.88;;;17.53;56.67
56514;BME280;62152;52.078;8.414;2024-02-14T12:32:32;100137.69;;;17.48;56.85
56514;BME280;62152;52.078;8.414;2024-02-14T12:36:36;100132.97;;;17.49;56.66
56514;BME280;62152;52.078;8.414;2024-02-14T12:40:37;100143.25;;;17.52;56.56
56514;BME280;62152;52.078;8.414;2024-02-14T12:44:37;100141.00;;;17.58;56.61
56514;BME280;62152;52.078;8.414;2024-02-14T12:48:38;100140.22;;;17.57;56.39
56514;BME280;62152;52.078;8.414;2024-02-14T12:52:41;100130.81;;;17.58;56.53
56514;BME280;62152;52.078;8.414;2024-02-14T12:56:42;100130.81;;;17.58;56.66
56514;BME280;62152;52.078;8.414;2024-02-14T13:00:44;100131.63;;;17.59;56.37
56514;BME280;62152;52.078;8.414;2024-02-14T13:04:44;100128.41;;;17.57;56.71
56514;BME280;62152;52.078;8.414;2024-02-14T13:08:48;100136.31;;;17.58;56.47
56514;BME280;62152;52.078;8.414;2024-02-14T13:12:48;100128.41;;;17.57;56.68
56514;BME280;62152;52.078;8.414;2024-02-14T13:16:49;100125.69;;;17.57;56.50
56514;BME280;62152;52.078;8.414;2024-02-14T13:20:50;100137.09;;;17.59;56.46
56514;BME280;62152;52.078;8.414;2024-02-14T13:24:53;100131.53;;;17.55;56.71
56514;BME280;62152;52.078;8.414;2024-02-14T13:28:54;100124.56;;;17.58;56.46
56514;BME280;62152;52.078;8.414;2024-02-14T13:32:55;100123.38;;;17.59;56.55
56514;BME280;62152;52.078;8.414;2024-02-14T13:36:56;100115.53;;;17.57;56.47
56514;BME280;62152;52.078;8.414;2024-02-14T13:40:59;100125.25;;;17.55;56.69
56514;BME280;62152;52.078;8.414;2024-02-14T13:45:00;100122.16;;;17.56;56.46
56514;BME280;62152;52.078;8.414;2024-02-14T13:49:00;100114.78;;;17.60;56.55
56514;BME280;62152;52.078;8.414;2024-02-14T13:53:01;100108.50;;;17.60;56.38
56514;BME280;62152;52.078;8.414;2024-02-14T13:57:05;100101.00;;;17.57;56.44
56514;BME280;62152;52.078;8.414;2024-02-14T14:01:05;100104.91;;;17.56;56.51
56514;BME280;62152;52.078;8.414;2024-02-14T14:05:06;100112.34;;;17.55;56.72
56514;BME280;62152;52.078;8.414;2024-02-14T14:09:07;100108.88;;;17.58;56.65
56514;BME280;62152;52.078;8.414;2024-02-14T14:13:11;100102.16;;;17.56;56.55
56514;BME280;62152;52.078;8.414;2024-02-14T14:17:11;100107.31;;;17.57;56.50
56514;BME280;62152;52.078;8.414;2024-02-14T14:21:12;100101.81;;;17.57;56.51
56514;BME280;62152;52.078;8.414;2024-02-14T14:25:13;100103.41;;;17.58;56.63
56514;BME280;62152;52.078;8.414;2024-02-14T14:29:16;100113.59;;;17.58;56.70
56514;BME280;62152;52.078;8.414;2024-02-14T14:33:17;100110.47;;;17.59;56.56
56514;BME280;62152;52.078;8.414;2024-02-14T14:37:18;100118.28;;;17.57;56.62
56514;BME280;62152;52.078;8.414;2024-02-14T14:41:19;100114.38;;;17.58;56.68
56514;BME280;62152;52.078;8.414;2024-02-14T14:45:22;100123.75;;;17.57;56.74
56514;BME280;62152;52.078;8.414;2024-02-14T14:49:23;100114.38;;;17.58;56.58
56514;BME280;62152;52.078;8.414;2024-02-14T14:53:24;100110.03;;;17.57;56.51
56514;BME280;62152;52.078;8.414;2024-02-14T14:57:24;100104.56;;;17.57;56.71
56514;BME280;62152;52.078;8.414;2024-02-14T15:01:28;100110.38;;;17.56;56.52
56514;BME280;62152;52.078;8.414;2024-02-14T15:05:29;100106.47;;;17.57;56.47
56514;BME280;62152;52.078;8.414;2024-02-14T15:09:29;100109.59;;;17.55;56.50
56514;BME280;62152;52.078;8.414;2024-02-14T15:13:30;100113.59;;;17.58;56.63
56514;BME280;62152;52.078;8.414;2024-02-14T15:17:34;100112.78;;;17.57;56.62
56514;BME280;62152;52.078;8.414;2024-02-14T15:21:34;100111.97;;;17.57;56.58
56514;BME280;62152;52.078;8.414;2024-02-14T15:25:35;100106.84;;;17.55;56.54
56514;BME280;62152;52.078;8.414;2024-02-14T15:29:36;100107.31;;;17.57;56.47
56514;BME280;62152;52.078;8.414;2024-02-14T15:33:39;100109.59;;;17.55;56.71
56514;BME280;62152;52.078;8.414;2024-02-14T15:37:40;100108.81;;;17.55;56.72
56514;BME280;62152;52.078;8.414;2024-02-14T15:41:41;100116.31;;;17.58;56.66
56514;BME280;62152;52.078;8.414;2024-02-14T15:45:42;100124.97;;;17.60;56.44
56514;BME280;62152;52.078;8.414;2024-02-14T15:49:45;100122.94;;;17.57;56.51
56514;BME280;62152;52.078;8.414;2024-02-14T15:53:46;100107.31;;;17.57;56.74
56514;BME280;62152;52.078;8.414;2024-02-14T15:57:47;100110.47;;;17.59;56.51
56514;BME280;62152;52.078;8.414;2024-02-14T16:01:47;100104.59;;;17.61;56.44
56514;BME280;62152;52.078;8.414;2024-02-14T16:05:51;100108.09;;;17.58;56.54
56514;BME280;62152;52.078;8.414;2024-02-14T16:09:51;100102.59;;;17.58;56.53
56514;BME280;62152;52.078;8.414;2024-02-14T16:13:53;100101.06;;;17.60;56.57
56514;BME280;62152;52.078;8.414;2024-02-14T16:17:54;100118.28;;;17.57;56.59
56514;BME280;62152;52.078;8.414;2024-02-14T16:21:57;100116.00;;;17.63;56.49
56514;BME280;62152;52.078;8.414;2024-02-14T16:25:58;100105.03;;;17.63;56.70
56514;BME280;62152;52.078;8.414;2024-02-14T16:29:59;100108.09;;;17.58;56.65
56514;BME280;62152;52.078;8.414;2024-02-14T16:34:00;100108.09;;;17.58;56.81
56514;BME280;62152;52.078;8.414;2024-02-14T16:38:03;100110.03;;;17.57;56.79
56514;BME280;62152;52.078;8.414;2024-02-14T16:42:04;100115.53;;;17.57;56.70
56514;BME280;62152;52.078;8.414;2024-02-14T16:46:05;100110.75;;;17.54;56.68
56514;BME280;62152;52.078;8.414;2024-02-14T16:50:06;100103.69;;;17.53;56.72
56514;BME280;62152;52.078;8.414;2024-02-14T16:54:10;100105.69;;;17.56;56.67
56514;BME280;62152;52.078;8.414;2024-02-14T16:58:11;100104.56;;;17.57;56.79
56514;BME280;62152;52.078;8.414;2024-02-14T17:02:12;100095.59;;;17.60;56.72
56514;BME280;62152;52.078;8.414;2024-02-14T17:06:13;100109.22;;;17.76;57.26
56514;BME280;62152;52.078;8.414;2024-02-14T17:10:16;100107.47;;;17.68;57.25
56514;BME280;62152;52.078;8.414;2024-02-14T17:14:18;100110.88;;;17.61;57.64
56514;BME280;62152;52.078;8.414;2024-02-14T17:18:19;100114.38;;;17.58;57.41
56514;BME280;62152;52.078;8.414;2024-02-14T17:22:19;100106.44;;;17.53;57.67
56514;BME280;62152;52.078;8.414;2024-02-14T17:26:23;100121.72;;;17.54;57.66
56514;BME280;62152;52.078;8.414;2024-02-14T17:30:24;100118.97;;;17.54;57.58
56514;BME280;62152;52.078;8.414;2024-02-14T17:34:24;100116.63;;;17.53;57.50
56514;BME280;62152;52.078;8.414;2024-02-14T17:38:25;100123.31;;;17.55;57.57
56514;BME280;62152;52.078;8.414;2024-02-14T17:42:28;100128.41;;;17.57;57.66
56514;BME280;62152;52.078;8.414;2024-02-14T17:46:30;100123.75;;;17.57;57.54
56514;BME280;62152;52.078;8.414;2024-02-14T17:50:31;100131.63;;;17.59;57.60
56514;BME280;62152;52.078;8.414;2024-02-14T17:54:31;100137.88;;;17.59;57.65
56514;BME280;62152;52.078;8.414;2024-02-14T17:58:35;100134.00;;;17.60;57.42
56514;BME280;62152;52.078;8.414;2024-02-14T18:02:36;100128.50;;;17.60;57.67
56514;BME280;62152;52.078;8.414;2024-02-14T18:06:36;100134.72;;;17.57;57.77
56514;BME280;62152;52.078;8.414;2024-02-14T18:10:37;100137.47;;;17.57;57.57
56514;BME280;62152;52.078;8.414;2024-02-14T18:14:41;100137.16;;;17.62;57.72
56514;BME280;62152;52.078;8.414;2024-02-14T18:18:41;100127.34;;;17.61;57.78
56514;BME280;62152;52.078;8.414;2024-02-14T18:22:42;100123.50;;;17.66;57.66
56514;BME280;62152;52.078;8.414;2024-02-14T18:26:43;100133.56;;;17.58;57.72
56514;BME280;62152;52.078;8.414;2024-02-14T18:30:46;100139.59;;;17.67;59.13
56514;BME280;62152;52.078;8.414;2024-02-14T18:34:47;100136.13;;;17.70;58.18
56514;BME280;62152;52.078;8.414;2024-02-14T18:38:50;100138.72;;;17.63;58.25
56514;BME280;62152;52.078;8.414;2024-02-14T18:42:51;100130.88;;;17.62;58.24
56514;BME280;62152;52.078;8.414;2024-02-14T18:46:54;100135.19;;;17.63;58.15
56514;BME280;62152;52.078;8.414;2024-02-14T18:50:55;100139.47;;;17.60;58.18
56514;BME280;62152;52.078;8.414;2024-02-14T18:54:56;100137.88;;;17.59;58.29
56514;BME280;62152;52.078;8.414;2024-02-14T18:58:56;100132.59;;;17.70;59.22
56514;BME280;62152;52.078;8.414;2024-02-14T19:03:00;100146.94;;;18.28;58.58
56514;BME280;62152;52.078;8.414;2024-02-14T19:07:00;100144.31;;;18.62;57.81
56514;BME280;62152;52.078;8.414;2024-02-14T19:11:01;100153.94;;;18.75;57.33
56514;BME280;62152;52.078;8.414;2024-02-14T19:15:02;100152.47;;;18.81;56.95
56514;BME280;62152;52.078;8.414;2024-02-14T19:19:06;100142.81;;;18.95;56.66
56514;BME280;62152;52.078;8.414;2024-02-14T19:23:07;100151.81;;;18.92;56.89
56514;BME280;62152;52.078;8.414;2024-02-14T19:27:08;100146.72;;;18.94;56.87
56514;BME280;62152;52.078;8.414;2024-02-14T19:31:08;100149.56;;;19.01;56.69
56514;BME280;62152;52.078;8.414;2024-02-14T19:35:12;100144.81;;;18.98;56.79
56514;BME280;62152;52.078;8.414;2024-02-14T19:39:12;100150.72;;;19.00;56.69
56514;BME280;62152;52.078;8.414;2024-02-14T19:43:14;100152.38;;;19.04;56.62
56514;BME280;62152;52.078;8.414;2024-02-14T19:47:14;100149.69;;;19.08;56.53
56514;BME280;62152;52.078;8.414;2024-02-14T19:51:18;100151.25;;;19.09;56.70
56514;BME280;62152;52.078;8.414;2024-02-14T19:55:19;100151.66;;;19.11;56.58
56514;BME280;62152;52.078;8.414;2024-02-14T19:59:19;100150.91;;;19.14;56.37
56514;BME280;62152;52.078;8.414;2024-02-14T20:03:20;100155.66;;;19.17;56.56
56514;BME280;62152;52.078;8.414;2024-02-14T20:07:24;100165.97;;;19.24;56.21
56514;BME280;62152;52.078;8.414;2024-02-14T20:11:24;100167.38;;;19.44;56.52
56514;BME280;62152;52.078;8.414;2024-02-14T20:15:25;100169.00;;;19.49;56.44
56514;BME280;62152;52.078;8.414;2024-02-14T20:19:26;100160.66;;;19.41;56.52
56514;BME280;62152;52.078;8.414;2024-02-14T20:23:29;100164.16;;;19.38;56.77
56514;BME280;62152;52.078;8.414;2024-02-14T20:27:30;100166.44;;;19.29;56.97
56514;BME280;62152;52.078;8.414;2024-02-14T20:31:31;100169.59;;;19.31;57.12
56514;BME280;62152;52.078;8.414;2024-02-14T20:35:32;100173.06;;;19.28;57.39
56514;BME280;62152;52.078;8.414;2024-02-14T20:39:35;100179.34;;;19.25;57.47
56514;BME280;62152;52.078;8.414;2024-02-14T20:43:36;100166.75;;;19.24;57.54
56514;BME280;62152;52.078;8.414;2024-02-14T20:47:39;100168.72;;;19.24;57.62
56514;BME280;62152;52.078;8.414;2024-02-14T20:51:40;100172.97;;;19.21;57.82
56514;BME280;62152;52.078;8.414;2024-02-14T20:55:44;100187.44;;;19.14;57.93
56514;BME280;62152;52.078;8.414;2024-02-14T20:59:44;100173.25;;;19.09;57.92
56514;BME280;62152;52.078;8.414;2024-02-14T21:03:45;100184.66;;;19.11;57.94
56514;BME280;62152;52.078;8.414;2024-02-14T21:07:46;100187.34;;;19.07;57.97
56514;BME280;62152;52.078;8.414;2024-02-14T21:11:49;100183.41;;;19.05;57.97